createdAt,value
2023-03-29T00:00:25.344Z,213.39
2023-03-29T00:01:35.652Z,213.86
2023-03-29T00:02:26.549Z,213.91
2023-03-29T00:03:25.397Z,214.07
2023-03-29T00:04:25.306Z,214.01
2023-03-29T00:05:25.307Z,214.38
2023-03-29T00:06:25.281Z,215.57
2023-03-29T00:07:25.268Z,216.18
2023-03-29T00:08:25.257Z,216.66
2023-03-29T00:09:25.276Z,218.24
2023-03-29T00:10:25.282Z,217.25
2023-03-29T00:11:25.325Z,218.57
2023-03-29T00:12:25.384Z,217.29
2023-03-29T00:13:25.440Z,217.40
2023-03-29T00:14:25.503Z,218.43
2023-03-29T00:15:25.564Z,219.64
2023-03-29T00:16:25.676Z,219.35
2023-03-29T00:17:25.723Z,218.29
2023-03-29T00:18:25.730Z,217.87
2023-03-29T00:19:25.794Z,217.32
2023-03-29T00:20:25.852Z,215.03
2023-03-29T00:21:25.903Z,216.08
2023-03-29T00:22:25.970Z,215.28
2023-03-29T00:23:26.010Z,214.76
2023-03-29T00:24:26.118Z,214.40
2023-03-29T00:25:26.916Z,214.49
2023-03-29T00:26:26.200Z,212.12
2023-03-29T00:27:26.253Z,210.99
2023-03-29T00:28:26.311Z,210.87
2023-03-29T00:29:26.354Z,211.33
2023-03-29T00:30:26.405Z,211.90
2023-03-29T00:31:26.527Z,214.28
2023-03-29T00:32:26.951Z,212.72
2023-03-29T00:33:26.539Z,214.55
2023-03-29T00:34:26.592Z,213.92
2023-03-29T00:35:26.683Z,212.16
2023-03-29T00:36:26.686Z,213.24
2023-03-29T00:37:26.824Z,211.97
2023-03-29T00:38:26.820Z,212.39
2023-03-29T00:39:26.876Z,212.76
2023-03-29T00:40:26.935Z,215.10
2023-03-29T00:41:26.998Z,214.64
2023-03-29T00:42:27.063Z,215.26
2023-03-29T00:43:27.145Z,215.50
2023-03-29T00:44:27.176Z,214.85
2023-03-29T00:45:27.240Z,215.81
2023-03-29T00:46:27.333Z,214.19
2023-03-29T00:47:27.410Z,212.35
2023-03-29T00:48:27.434Z,212.67
2023-03-29T00:49:27.494Z,212.80
2023-03-29T00:50:27.551Z,213.43
2023-03-29T00:51:27.612Z,213.36
2023-03-29T00:52:27.673Z,213.58
2023-03-29T00:53:27.723Z,212.26
2023-03-29T00:54:27.777Z,212.10
2023-03-29T00:55:27.854Z,212.40
2023-03-29T00:56:27.905Z,212.11
2023-03-29T00:57:28.032Z,212.27
2023-03-29T00:58:28.062Z,212.21
2023-03-29T00:59:28.088Z,211.06
2023-03-29T01:00:28.157Z,212.04
2023-03-29T01:01:28.348Z,212.59
2023-03-29T01:02:28.311Z,212.45
2023-03-29T01:03:28.954Z,211.39
2023-03-29T01:04:28.478Z,212.11
2023-03-29T01:05:28.456Z,212.32
2023-03-29T01:06:28.526Z,211.43
2023-03-29T01:07:28.589Z,211.09
2023-03-29T01:08:28.642Z,210.88
2023-03-29T01:09:28.681Z,210.44
2023-03-29T01:10:28.755Z,209.66
2023-03-29T01:11:28.795Z,210.36
2023-03-29T01:12:28.815Z,210.09
2023-03-29T01:13:28.858Z,209.67
2023-03-29T01:14:28.904Z,209.42
2023-03-29T01:15:29.060Z,209.19
2023-03-29T01:16:29.068Z,208.47
2023-03-29T01:17:29.072Z,207.15
2023-03-29T01:18:29.140Z,206.59
2023-03-29T01:19:29.189Z,207.92
2023-03-29T01:20:29.243Z,207.34
2023-03-29T01:21:29.326Z,208.84
2023-03-29T01:22:29.359Z,209.12
2023-03-29T01:23:29.417Z,208.07
2023-03-29T01:24:29.485Z,208.26
2023-03-29T01:25:29.591Z,207.92
2023-03-29T01:26:29.594Z,209.39
2023-03-29T01:27:29.665Z,209.79
2023-03-29T01:28:29.730Z,211.05
2023-03-29T01:29:29.867Z,211.65
2023-03-29T01:30:29.853Z,212.67
2023-03-29T01:31:29.941Z,212.04
2023-03-29T01:32:30.006Z,210.91
2023-03-29T01:33:30.036Z,209.52
2023-03-29T01:34:30.088Z,210.40
2023-03-29T01:35:30.158Z,208.98
2023-03-29T01:36:30.277Z,210.74
2023-03-29T01:37:30.269Z,209.90
2023-03-29T01:38:30.336Z,209.64
2023-03-29T01:39:30.437Z,210.58
2023-03-29T01:40:30.472Z,209.81
2023-03-29T01:41:30.539Z,211.00
2023-03-29T01:42:30.573Z,210.17
2023-03-29T01:43:30.615Z,212.10
2023-03-29T01:44:30.696Z,211.53
2023-03-29T01:45:30.746Z,211.72
2023-03-29T01:46:30.846Z,210.71
2023-03-29T01:47:30.887Z,211.68
2023-03-29T01:48:30.929Z,211.26
2023-03-29T01:49:30.989Z,211.89
2023-03-29T01:50:31.062Z,212.38
2023-03-29T01:51:31.988Z,213.38
2023-03-29T01:52:31.164Z,213.24
2023-03-29T01:53:31.220Z,214.91
2023-03-29T01:54:31.286Z,214.06
2023-03-29T01:55:31.337Z,215.70
2023-03-29T01:56:31.386Z,214.55
2023-03-29T01:57:31.460Z,213.78
2023-03-29T01:58:31.505Z,215.06
2023-03-29T01:59:31.566Z,215.96
2023-03-29T02:00:31.631Z,215.46
2023-03-29T02:01:32.650Z,215.96
2023-03-29T02:02:31.880Z,215.05
2023-03-29T02:03:31.879Z,216.09
2023-03-29T02:04:31.869Z,216.26
2023-03-29T02:05:31.938Z,216.80
2023-03-29T02:06:31.995Z,217.57
2023-03-29T02:07:32.049Z,216.50
2023-03-29T02:08:32.124Z,215.92
2023-03-29T02:09:32.196Z,217.16
2023-03-29T02:10:32.228Z,217.56
2023-03-29T02:11:32.287Z,217.45
2023-03-29T02:12:32.356Z,218.22
2023-03-29T02:13:32.409Z,217.38
2023-03-29T02:14:32.460Z,218.09
2023-03-29T02:15:32.548Z,219.92
2023-03-29T02:16:32.578Z,218.17
2023-03-29T02:17:32.671Z,217.04
2023-03-29T02:18:32.699Z,220.62
2023-03-29T02:19:32.965Z,218.90
2023-03-29T02:20:32.814Z,218.45
2023-03-29T02:21:32.868Z,218.45
2023-03-29T02:22:32.932Z,217.50
2023-03-29T02:23:33.006Z,216.90
2023-03-29T02:24:33.096Z,216.35
2023-03-29T02:25:33.101Z,216.53
2023-03-29T02:26:33.157Z,216.46
2023-03-29T02:27:33.218Z,216.42
2023-03-29T02:28:33.299Z,216.09
2023-03-29T02:29:33.342Z,214.93
2023-03-29T02:30:33.408Z,214.66
2023-03-29T02:31:33.492Z,216.18
2023-03-29T02:32:33.557Z,214.73
2023-03-29T02:33:33.584Z,214.56
2023-03-29T02:34:33.639Z,215.10
2023-03-29T02:35:33.718Z,214.44
2023-03-29T02:36:33.768Z,214.18
2023-03-29T02:37:33.807Z,213.86
2023-03-29T02:38:33.888Z,213.26
2023-03-29T02:39:33.917Z,213.60
2023-03-29T02:40:34.000Z,215.53
2023-03-29T02:41:34.049Z,216.25
2023-03-29T02:42:34.094Z,216.36
2023-03-29T02:43:34.215Z,217.29
2023-03-29T02:44:34.225Z,217.29
2023-03-29T02:45:34.292Z,215.97
2023-03-29T02:46:34.524Z,215.80
2023-03-29T02:47:34.409Z,213.47
2023-03-29T02:48:34.473Z,215.45
2023-03-29T02:49:34.524Z,215.14
2023-03-29T02:50:34.581Z,214.46
2023-03-29T02:51:34.644Z,214.83
2023-03-29T02:52:35.463Z,217.09
2023-03-29T02:53:34.762Z,216.50
2023-03-29T02:54:34.820Z,216.49
2023-03-29T02:55:34.980Z,215.96
2023-03-29T02:56:34.932Z,216.41
2023-03-29T02:57:35.055Z,216.45
2023-03-29T02:58:35.060Z,218.76
2023-03-29T02:59:35.120Z,216.99
2023-03-29T03:00:35.170Z,212.20
2023-03-29T03:01:35.291Z,213.82
2023-03-29T03:02:35.384Z,212.76
2023-03-29T03:03:35.425Z,212.20
2023-03-29T03:04:35.367Z,213.08
2023-03-29T03:05:35.424Z,212.18
2023-03-29T03:06:35.470Z,212.34
2023-03-29T03:07:35.511Z,212.80
2023-03-29T03:08:35.560Z,213.23
2023-03-29T03:09:35.596Z,214.26
2023-03-29T03:10:35.656Z,214.21
2023-03-29T03:11:35.680Z,212.93
2023-03-29T03:12:35.719Z,214.86
2023-03-29T03:13:35.771Z,215.17
2023-03-29T03:14:35.812Z,216.44
2023-03-29T03:15:35.919Z,217.05
2023-03-29T03:16:35.911Z,217.57
2023-03-29T03:17:35.954Z,217.39
2023-03-29T03:18:35.939Z,218.54
2023-03-29T03:19:35.961Z,217.29
2023-03-29T03:20:36.981Z,215.29
2023-03-29T03:21:36.024Z,215.95
2023-03-29T03:22:36.059Z,218.42
2023-03-29T03:23:36.088Z,218.56
2023-03-29T03:24:36.111Z,220.19
2023-03-29T03:25:36.139Z,221.21
2023-03-29T03:26:36.157Z,221.03
2023-03-29T03:27:36.182Z,221.09
2023-03-29T03:28:36.210Z,221.06
2023-03-29T03:29:36.240Z,221.45
2023-03-29T03:30:36.984Z,221.79
2023-03-29T03:31:36.343Z,221.88
2023-03-29T03:32:36.364Z,221.57
2023-03-29T03:33:36.321Z,222.95
2023-03-29T03:34:36.342Z,219.92
2023-03-29T03:35:36.375Z,220.24
2023-03-29T03:36:36.500Z,221.74
2023-03-29T03:37:36.406Z,222.64
2023-03-29T03:38:36.427Z,221.89
2023-03-29T03:39:36.433Z,222.48
2023-03-29T03:40:36.441Z,222.60
2023-03-29T03:41:36.517Z,223.47
2023-03-29T03:42:36.464Z,224.09
2023-03-29T03:43:36.487Z,223.79
2023-03-29T03:44:36.487Z,224.35
2023-03-29T03:45:36.526Z,222.74
2023-03-29T03:46:36.505Z,223.05
2023-03-29T03:47:36.516Z,223.56
2023-03-29T03:48:36.525Z,224.20
2023-03-29T03:49:36.526Z,224.03
2023-03-29T03:50:36.536Z,224.45
2023-03-29T03:51:36.539Z,225.31
2023-03-29T03:52:36.540Z,224.20
2023-03-29T03:53:36.560Z,222.05
2023-03-29T03:54:36.559Z,222.06
2023-03-29T03:55:36.564Z,221.30
2023-03-29T03:56:36.561Z,221.97
2023-03-29T03:57:36.994Z,221.84
2023-03-29T03:58:36.574Z,218.64
2023-03-29T03:59:36.569Z,219.74
2023-03-29T04:00:36.580Z,221.24
2023-03-29T04:01:36.576Z,221.25
2023-03-29T04:02:36.727Z,222.68
2023-03-29T04:03:36.702Z,221.52
2023-03-29T04:04:36.652Z,221.70
2023-03-29T04:05:36.618Z,221.99
2023-03-29T04:06:36.629Z,221.69
2023-03-29T04:07:36.633Z,220.64
2023-03-29T04:08:36.649Z,220.53
2023-03-29T04:09:36.659Z,218.46
2023-03-29T04:10:36.661Z,219.27
2023-03-29T04:11:36.678Z,218.60
2023-03-29T04:12:36.684Z,218.61
2023-03-29T04:13:36.697Z,219.34
2023-03-29T04:14:36.707Z,219.22
2023-03-29T04:15:36.718Z,219.26
2023-03-29T04:16:36.722Z,218.16
2023-03-29T04:17:36.811Z,219.10
2023-03-29T04:18:36.822Z,218.30
2023-03-29T04:19:36.749Z,216.57
2023-03-29T04:20:36.761Z,215.78
2023-03-29T04:21:36.777Z,213.79
2023-03-29T04:22:36.780Z,213.82
2023-03-29T04:23:36.805Z,214.34
2023-03-29T04:24:36.805Z,214.88
2023-03-29T04:25:36.815Z,215.68
2023-03-29T04:26:36.848Z,217.08
2023-03-29T04:27:36.871Z,217.46
2023-03-29T04:28:36.898Z,218.24
2023-03-29T04:29:37.011Z,217.91
2023-03-29T04:30:36.902Z,219.29
2023-03-29T04:31:36.943Z,218.71
2023-03-29T04:32:36.949Z,218.68
2023-03-29T04:33:36.998Z,219.22
2023-03-29T04:34:36.954Z,219.83
2023-03-29T04:35:37.031Z,218.28
2023-03-29T04:36:36.984Z,217.93
2023-03-29T04:37:36.997Z,218.41
2023-03-29T04:38:37.010Z,217.64
2023-03-29T04:39:37.023Z,217.44
2023-03-29T04:40:37.042Z,217.15
2023-03-29T04:41:37.056Z,216.43
2023-03-29T04:42:37.075Z,214.94
2023-03-29T04:43:39.725Z,213.05
2023-03-29T04:44:37.125Z,212.41
2023-03-29T04:45:37.075Z,212.11
2023-03-29T04:46:37.159Z,213.32
2023-03-29T04:47:37.064Z,212.73
2023-03-29T04:48:37.065Z,213.88
2023-03-29T04:49:37.045Z,214.48
2023-03-29T04:50:37.042Z,214.24
2023-03-29T04:51:37.046Z,216.05
2023-03-29T04:52:37.032Z,215.56
2023-03-29T04:53:37.014Z,215.78
2023-03-29T04:54:37.009Z,215.89
2023-03-29T04:55:37.003Z,215.52
2023-03-29T04:56:36.993Z,214.69
2023-03-29T04:57:37.053Z,211.34
2023-03-29T04:58:36.984Z,212.59
2023-03-29T04:59:36.983Z,211.32
2023-03-29T05:00:36.974Z,210.04
2023-03-29T05:01:37.055Z,209.92
2023-03-29T05:02:37.001Z,209.73
2023-03-29T05:03:36.952Z,210.53
2023-03-29T05:04:36.985Z,211.10
2023-03-29T05:05:36.937Z,210.59
2023-03-29T05:06:37.011Z,211.54
2023-03-29T05:07:36.926Z,211.52
2023-03-29T05:08:36.917Z,212.42
2023-03-29T05:09:36.914Z,215.18
2023-03-29T05:10:36.905Z,214.31
2023-03-29T05:11:36.902Z,214.48
2023-03-29T05:12:36.943Z,213.20
2023-03-29T05:13:36.895Z,214.01
2023-03-29T05:14:36.877Z,212.97
2023-03-29T05:15:37.162Z,214.42
2023-03-29T05:16:36.893Z,215.60
2023-03-29T05:17:36.875Z,216.27
2023-03-29T05:18:36.850Z,213.68
2023-03-29T05:19:36.840Z,208.65
2023-03-29T05:20:36.837Z,208.25
2023-03-29T05:21:36.904Z,206.97
2023-03-29T05:22:36.811Z,208.05
2023-03-29T05:23:36.809Z,211.40
2023-03-29T05:24:36.809Z,213.37
2023-03-29T05:25:36.791Z,217.12
2023-03-29T05:26:36.795Z,219.38
2023-03-29T05:27:36.784Z,217.89
2023-03-29T05:28:36.769Z,216.64
2023-03-29T05:29:36.798Z,172.38
2023-03-29T05:30:36.764Z,135.97
2023-03-29T05:31:36.801Z,106.17
2023-03-29T05:32:36.881Z,91.28
2023-03-29T05:33:36.755Z,73.07
2023-03-29T05:34:36.735Z,86.79
2023-03-29T05:35:36.737Z,100.31
2023-03-29T05:36:36.716Z,115.74
2023-03-29T05:37:36.708Z,132.82
2023-03-29T05:38:36.735Z,145.52
2023-03-29T05:39:37.864Z,154.58
2023-03-29T05:40:36.692Z,167.90
2023-03-29T05:41:36.689Z,171.89
2023-03-29T05:42:36.734Z,181.68
2023-03-29T05:43:36.674Z,188.27
2023-03-29T05:44:36.680Z,197.84
2023-03-29T05:45:36.709Z,204.75
2023-03-29T05:46:36.708Z,211.53
2023-03-29T05:47:36.755Z,216.87
2023-03-29T05:48:36.719Z,225.72
2023-03-29T05:49:36.722Z,234.06
2023-03-29T05:50:36.755Z,241.92
2023-03-29T05:51:36.820Z,249.37
2023-03-29T05:52:36.862Z,249.99
2023-03-29T05:53:36.916Z,250.00
2023-03-29T05:54:36.979Z,238.11
2023-03-29T05:55:37.042Z,223.66
2023-03-29T05:56:37.065Z,176.59
2023-03-29T05:57:37.072Z,172.68
2023-03-29T05:58:37.073Z,180.00
2023-03-29T05:59:37.207Z,194.07
2023-03-29T06:00:37.079Z,206.38
2023-03-29T06:01:37.082Z,215.56
2023-03-29T06:02:37.180Z,223.72
2023-03-29T06:03:37.351Z,230.59
2023-03-29T06:04:37.391Z,236.20
2023-03-29T06:05:37.393Z,241.06
2023-03-29T06:06:38.041Z,248.20
2023-03-29T06:07:37.373Z,250.00
2023-03-29T06:08:37.403Z,250.00
2023-03-29T06:09:37.434Z,250.00
2023-03-29T06:10:37.471Z,250.00
2023-03-29T06:11:37.498Z,250.00
2023-03-29T06:12:37.645Z,250.00
2023-03-29T06:13:37.534Z,250.00
2023-03-29T06:14:38.054Z,249.73
2023-03-29T06:15:37.550Z,249.94
2023-03-29T06:16:37.694Z,249.65
2023-03-29T06:17:37.684Z,250.00
2023-03-29T06:18:37.584Z,250.65
2023-03-29T06:19:37.584Z,250.00
2023-03-29T06:20:37.588Z,249.98
2023-03-29T06:21:37.587Z,250.00
2023-03-29T06:22:37.590Z,247.90
2023-03-29T06:23:37.622Z,250.56
2023-03-29T06:24:37.611Z,250.00
2023-03-29T06:25:37.623Z,223.63
2023-03-29T06:26:37.646Z,206.38
2023-03-29T06:27:37.681Z,203.09
2023-03-29T06:28:37.699Z,201.85
2023-03-29T06:29:37.767Z,208.02
2023-03-29T06:30:37.773Z,210.39
2023-03-29T06:31:37.907Z,213.02
2023-03-29T06:32:37.889Z,216.01
2023-03-29T06:33:37.860Z,219.45
2023-03-29T06:34:38.666Z,222.43
2023-03-29T06:35:38.488Z,223.75
2023-03-29T06:36:38.891Z,223.82
2023-03-29T06:37:37.893Z,224.21
2023-03-29T06:38:39.907Z,224.32
2023-03-29T06:39:37.880Z,224.86
2023-03-29T06:40:37.900Z,226.92
2023-03-29T06:41:37.866Z,229.11
2023-03-29T06:42:37.866Z,229.84
2023-03-29T06:43:38.725Z,229.10
2023-03-29T06:44:37.838Z,228.48
2023-03-29T06:45:37.849Z,230.12
2023-03-29T06:46:37.883Z,232.09
2023-03-29T06:47:37.830Z,234.14
2023-03-29T06:48:37.817Z,235.34
2023-03-29T06:49:37.816Z,236.90
2023-03-29T06:50:37.806Z,236.74
2023-03-29T06:51:37.805Z,237.24
2023-03-29T06:52:37.794Z,238.75
2023-03-29T06:53:37.797Z,234.93
2023-03-29T06:54:38.564Z,237.97
2023-03-29T06:55:37.828Z,237.55
2023-03-29T06:56:37.897Z,238.24
2023-03-29T06:57:37.906Z,236.97
2023-03-29T06:58:37.879Z,236.77
2023-03-29T06:59:37.883Z,235.76
2023-03-29T07:00:37.972Z,237.32
2023-03-29T07:01:37.957Z,237.69
2023-03-29T07:02:37.945Z,237.98
2023-03-29T07:03:37.950Z,238.02
2023-03-29T07:04:38.022Z,235.43
2023-03-29T07:05:37.974Z,238.21
2023-03-29T07:06:37.995Z,238.23
2023-03-29T07:07:38.081Z,239.93
2023-03-29T07:08:38.022Z,242.32
2023-03-29T07:09:38.044Z,243.79
2023-03-29T07:10:38.060Z,245.03
2023-03-29T07:11:38.087Z,244.82
2023-03-29T07:12:38.103Z,246.04
2023-03-29T07:13:38.111Z,246.32
2023-03-29T07:14:38.139Z,247.31
2023-03-29T07:15:38.135Z,246.00
2023-03-29T07:16:38.278Z,246.94
2023-03-29T07:17:38.267Z,245.40
2023-03-29T07:18:38.455Z,244.30
2023-03-29T07:19:38.327Z,243.24
2023-03-29T07:20:38.281Z,238.75
2023-03-29T07:21:38.295Z,212.02
2023-03-29T07:22:38.328Z,204.02
2023-03-29T07:23:38.369Z,157.95
2023-03-29T07:24:38.396Z,135.81
2023-03-29T07:25:38.425Z,128.53
2023-03-29T07:26:39.307Z,124.64
2023-03-29T07:27:38.427Z,124.23
2023-03-29T07:28:38.441Z,126.83
2023-03-29T07:29:38.435Z,128.42
2023-03-29T07:30:38.454Z,136.07
2023-03-29T07:31:38.442Z,136.35
2023-03-29T07:32:38.658Z,136.93
2023-03-29T07:33:38.558Z,143.65
2023-03-29T07:34:38.560Z,149.38
2023-03-29T07:35:38.605Z,147.91
2023-03-29T07:36:38.647Z,150.57
2023-03-29T07:37:38.698Z,157.01
2023-03-29T07:38:38.751Z,159.15
2023-03-29T07:39:38.852Z,159.78
2023-03-29T07:40:38.849Z,164.78
2023-03-29T07:41:38.898Z,164.82
2023-03-29T07:42:38.950Z,160.87
2023-03-29T07:43:38.992Z,161.69
2023-03-29T07:44:39.049Z,162.97
2023-03-29T07:45:40.145Z,171.71
2023-03-29T07:46:39.164Z,169.59
2023-03-29T07:47:39.228Z,171.92
2023-03-29T07:48:39.218Z,174.75
2023-03-29T07:49:39.262Z,179.94
2023-03-29T07:50:40.083Z,180.23
2023-03-29T07:51:40.081Z,179.37
2023-03-29T07:52:39.369Z,184.44
2023-03-29T07:53:39.407Z,185.09
2023-03-29T07:54:39.446Z,187.34
2023-03-29T07:55:39.461Z,184.79
2023-03-29T07:56:39.548Z,185.36
2023-03-29T07:57:39.522Z,185.66
2023-03-29T07:58:39.550Z,187.75
2023-03-29T07:59:40.094Z,183.90
2023-03-29T08:00:39.716Z,185.24
2023-03-29T08:01:39.642Z,188.23
2023-03-29T08:02:39.744Z,188.09
2023-03-29T08:03:39.719Z,185.77
2023-03-29T08:04:39.778Z,189.78
2023-03-29T08:05:41.702Z,193.02
2023-03-29T08:06:39.793Z,192.54
2023-03-29T08:07:39.827Z,195.90
2023-03-29T08:08:39.844Z,196.65
2023-03-29T08:09:39.848Z,199.10
2023-03-29T08:10:39.870Z,199.43
2023-03-29T08:11:39.906Z,195.75
2023-03-29T08:12:40.101Z,193.21
2023-03-29T08:13:39.950Z,175.73
2023-03-29T08:14:39.996Z,176.31
2023-03-29T08:15:40.125Z,156.61
2023-03-29T08:16:40.126Z,119.26
2023-03-29T08:17:40.165Z,93.88
2023-03-29T08:18:40.180Z,84.23
2023-03-29T08:19:40.209Z,85.37
2023-03-29T08:20:41.207Z,68.89
2023-03-29T08:21:40.209Z,74.28
2023-03-29T08:22:40.206Z,82.11
2023-03-29T08:23:40.183Z,86.45
2023-03-29T08:24:40.177Z,94.72
2023-03-29T08:25:40.179Z,106.05
2023-03-29T08:26:40.160Z,113.83
2023-03-29T08:27:41.097Z,111.56
2023-03-29T08:28:40.156Z,120.52
2023-03-29T08:29:40.144Z,130.89
2023-03-29T08:30:40.202Z,137.76
2023-03-29T08:31:40.205Z,145.58
2023-03-29T08:32:40.173Z,152.61
2023-03-29T08:33:40.609Z,158.11
2023-03-29T08:34:40.211Z,162.37
2023-03-29T08:35:40.362Z,166.61
2023-03-29T08:36:40.316Z,170.91
2023-03-29T08:37:40.341Z,175.96
2023-03-29T08:38:40.357Z,180.76
2023-03-29T08:39:40.380Z,183.85
2023-03-29T08:40:40.407Z,187.70
2023-03-29T08:41:40.418Z,190.99
2023-03-29T08:42:40.475Z,193.20
2023-03-29T08:43:40.440Z,196.00
2023-03-29T08:44:40.436Z,196.15
2023-03-29T08:45:40.432Z,196.81
2023-03-29T08:46:40.698Z,198.85
2023-03-29T08:47:40.433Z,202.13
2023-03-29T08:48:40.408Z,208.45
2023-03-29T08:49:40.460Z,211.36
2023-03-29T08:50:40.426Z,214.57
2023-03-29T08:51:40.400Z,217.44
2023-03-29T08:52:40.384Z,220.13
2023-03-29T08:53:40.371Z,222.76
2023-03-29T08:54:40.378Z,223.94
2023-03-29T08:55:40.366Z,227.33
2023-03-29T08:56:41.146Z,229.24
2023-03-29T08:57:40.356Z,231.25
2023-03-29T08:58:40.359Z,235.02
2023-03-29T08:59:40.332Z,237.33
2023-03-29T09:00:40.330Z,239.79
2023-03-29T09:01:40.427Z,240.06
2023-03-29T09:02:40.373Z,243.07
2023-03-29T09:03:40.358Z,244.50
2023-03-29T09:04:40.360Z,247.67
2023-03-29T09:05:40.423Z,249.89
2023-03-29T09:06:40.501Z,250.00
2023-03-29T09:07:40.540Z,249.50
2023-03-29T09:08:40.612Z,250.00
2023-03-29T09:09:40.698Z,249.83
2023-03-29T09:10:40.715Z,248.56
2023-03-29T09:11:40.771Z,249.62
2023-03-29T09:12:40.820Z,250.14
2023-03-29T09:13:40.879Z,249.09
2023-03-29T09:14:41.615Z,250.00
2023-03-29T09:15:41.017Z,248.65
2023-03-29T09:16:41.130Z,250.00
2023-03-29T09:17:41.126Z,249.97
2023-03-29T09:18:41.118Z,248.51
2023-03-29T09:19:42.133Z,249.54
2023-03-29T09:20:41.212Z,249.94
2023-03-29T09:21:41.259Z,249.81
2023-03-29T09:22:41.309Z,249.41
2023-03-29T09:23:41.348Z,249.12
2023-03-29T09:24:41.410Z,248.65
2023-03-29T09:25:52.595Z,249.44
2023-03-29T09:26:42.467Z,249.51
2023-03-29T09:27:41.453Z,249.63
2023-03-29T09:28:41.466Z,249.64
2023-03-29T09:29:41.447Z,249.10
2023-03-29T09:30:41.481Z,250.02
2023-03-29T09:31:41.468Z,248.79
2023-03-29T09:32:41.490Z,247.66
2023-03-29T09:33:41.411Z,247.57
2023-03-29T09:34:41.444Z,248.09
2023-03-29T09:35:41.443Z,247.53
2023-03-29T09:36:41.402Z,246.57
2023-03-29T09:37:41.390Z,246.45
2023-03-29T09:38:41.387Z,246.21
2023-03-29T09:39:41.384Z,246.03
2023-03-29T09:40:41.377Z,245.55
2023-03-29T09:41:41.371Z,245.52
2023-03-29T09:42:41.382Z,245.59
2023-03-29T09:43:41.407Z,244.95
2023-03-29T09:44:41.418Z,245.23
2023-03-29T09:45:41.453Z,244.68
2023-03-29T09:46:42.414Z,244.69
2023-03-29T09:47:41.474Z,243.80
2023-03-29T09:48:41.383Z,242.51
2023-03-29T09:49:42.129Z,243.75
2023-03-29T09:50:42.127Z,242.30
2023-03-29T09:51:41.370Z,241.97
2023-03-29T09:52:41.358Z,242.32
2023-03-29T09:53:41.365Z,241.93
2023-03-29T09:54:41.352Z,241.94
2023-03-29T09:55:41.343Z,241.38
2023-03-29T09:56:41.370Z,241.01
2023-03-29T09:57:41.322Z,241.82
2023-03-29T09:58:41.325Z,240.26
2023-03-29T09:59:41.314Z,240.92
2023-03-29T10:00:41.310Z,239.65
2023-03-29T10:01:41.335Z,239.56
2023-03-29T10:02:41.334Z,238.84
2023-03-29T10:03:41.294Z,238.91
2023-03-29T10:04:41.419Z,240.30
2023-03-29T10:05:42.143Z,237.50
2023-03-29T10:06:41.351Z,237.97
2023-03-29T10:07:41.265Z,237.62
2023-03-29T10:08:41.263Z,237.66
2023-03-29T10:09:41.284Z,237.96
2023-03-29T10:10:41.248Z,237.26
2023-03-29T10:11:41.244Z,237.10
2023-03-29T10:12:41.248Z,236.85
2023-03-29T10:13:41.272Z,236.56
2023-03-29T10:14:41.303Z,236.06
2023-03-29T10:15:41.330Z,236.12
2023-03-29T10:16:41.397Z,236.89
2023-03-29T10:17:41.368Z,234.05
2023-03-29T10:18:41.419Z,235.69
2023-03-29T10:19:41.413Z,235.14
2023-03-29T10:20:41.445Z,233.93
2023-03-29T10:21:41.474Z,233.45
2023-03-29T10:22:41.506Z,233.38
2023-03-29T10:23:41.538Z,231.37
2023-03-29T10:24:41.560Z,233.32
2023-03-29T10:25:42.599Z,232.11
2023-03-29T10:26:41.602Z,230.49
2023-03-29T10:27:41.629Z,230.57
2023-03-29T10:28:41.649Z,231.21
2023-03-29T10:29:41.677Z,229.19
2023-03-29T10:30:41.720Z,228.91
2023-03-29T10:31:41.796Z,226.63
2023-03-29T10:32:41.888Z,228.55
2023-03-29T10:33:41.783Z,227.71
2023-03-29T10:34:41.797Z,228.55
2023-03-29T10:35:41.978Z,227.37
2023-03-29T10:36:41.839Z,227.35
2023-03-29T10:37:41.853Z,228.13
2023-03-29T10:38:41.886Z,227.08
2023-03-29T10:39:41.904Z,226.53
2023-03-29T10:40:41.924Z,227.31
2023-03-29T10:41:41.946Z,224.23
2023-03-29T10:42:41.978Z,223.51
2023-03-29T10:43:41.994Z,223.46
2023-03-29T10:44:42.020Z,221.79
2023-03-29T10:45:42.782Z,220.32
2023-03-29T10:46:42.147Z,219.43
2023-03-29T10:47:42.110Z,222.55
2023-03-29T10:48:42.121Z,221.46
2023-03-29T10:49:42.166Z,222.25
2023-03-29T10:50:42.189Z,222.73
2023-03-29T10:51:42.245Z,221.39
2023-03-29T10:52:42.263Z,221.53
2023-03-29T10:53:42.255Z,220.28
2023-03-29T10:54:42.343Z,219.93
2023-03-29T10:55:43.149Z,220.85
2023-03-29T10:56:42.412Z,221.06
2023-03-29T10:57:42.350Z,219.79
2023-03-29T10:58:42.386Z,217.12
2023-03-29T10:59:42.409Z,216.40
2023-03-29T11:00:42.680Z,218.26
2023-03-29T11:01:42.549Z,218.28
2023-03-29T11:02:42.574Z,219.50
2023-03-29T11:03:42.580Z,218.87
2023-03-29T11:04:42.550Z,218.70
2023-03-29T11:05:42.583Z,217.89
2023-03-29T11:06:42.611Z,217.21
2023-03-29T11:07:42.635Z,215.40
2023-03-29T11:08:42.669Z,216.86
2023-03-29T11:09:42.715Z,217.13
2023-03-29T11:10:42.738Z,213.69
2023-03-29T11:11:42.765Z,214.62
2023-03-29T11:12:42.784Z,213.71
2023-03-29T11:13:42.867Z,213.19
2023-03-29T11:14:42.853Z,212.04
2023-03-29T11:15:42.915Z,211.09
2023-03-29T11:16:42.909Z,210.35
2023-03-29T11:17:42.970Z,209.88
2023-03-29T11:18:42.990Z,209.70
2023-03-29T11:19:43.018Z,208.60
2023-03-29T11:20:43.060Z,209.64
2023-03-29T11:21:43.094Z,209.52
2023-03-29T11:22:43.732Z,208.32
2023-03-29T11:23:43.165Z,208.02
2023-03-29T11:24:43.195Z,209.28
2023-03-29T11:25:43.229Z,208.34
2023-03-29T11:26:43.262Z,208.38
2023-03-29T11:27:43.297Z,209.73
2023-03-29T11:28:43.324Z,209.82
2023-03-29T11:29:43.361Z,209.14
2023-03-29T11:30:43.405Z,207.24
2023-03-29T11:31:43.479Z,207.27
2023-03-29T11:32:43.516Z,207.59
2023-03-29T11:33:43.492Z,207.57
2023-03-29T11:34:43.531Z,207.74
2023-03-29T11:35:43.597Z,207.75
2023-03-29T11:36:43.605Z,205.84
2023-03-29T11:37:43.641Z,205.80
2023-03-29T11:38:45.224Z,208.33
2023-03-29T11:39:43.725Z,207.28
2023-03-29T11:40:43.780Z,208.46
2023-03-29T11:41:43.833Z,207.90
2023-03-29T11:42:43.874Z,207.38
2023-03-29T11:43:43.908Z,206.35
2023-03-29T11:44:43.959Z,207.89
2023-03-29T11:45:44.006Z,206.67
2023-03-29T11:46:44.086Z,206.71
2023-03-29T11:47:44.181Z,206.06
2023-03-29T11:48:44.139Z,205.99
2023-03-29T11:49:44.278Z,205.18
2023-03-29T11:50:44.271Z,204.89
2023-03-29T11:51:44.294Z,206.04
2023-03-29T11:52:44.342Z,207.09
2023-03-29T11:53:44.388Z,205.62
2023-03-29T11:54:44.444Z,205.25
2023-03-29T11:55:44.510Z,205.95
2023-03-29T11:56:44.588Z,205.27
2023-03-29T11:57:44.608Z,204.12
2023-03-29T11:58:44.668Z,204.44
2023-03-29T11:59:44.733Z,205.46
2023-03-29T12:00:44.800Z,204.73
2023-03-29T12:01:44.872Z,203.99
2023-03-29T12:02:45.031Z,205.12
2023-03-29T12:03:46.898Z,205.16
2023-03-29T12:04:45.050Z,205.71
2023-03-29T12:05:45.108Z,205.57
2023-03-29T12:06:45.144Z,204.51
2023-03-29T12:07:45.211Z,201.40
2023-03-29T12:08:45.254Z,200.77
2023-03-29T12:09:45.310Z,199.92
2023-03-29T12:10:45.373Z,201.62
2023-03-29T12:11:45.422Z,202.17
2023-03-29T12:12:45.495Z,202.12
2023-03-29T12:13:45.544Z,202.29
2023-03-29T12:14:45.594Z,203.30
2023-03-29T12:15:45.664Z,202.14
2023-03-29T12:16:45.801Z,201.96
2023-03-29T12:17:45.821Z,202.48
2023-03-29T12:18:46.702Z,202.43
2023-03-29T12:19:45.898Z,200.95
2023-03-29T12:20:45.968Z,200.99
2023-03-29T12:21:46.007Z,201.57
2023-03-29T12:22:46.068Z,202.62
2023-03-29T12:23:46.127Z,202.24
2023-03-29T12:24:46.194Z,202.06
2023-03-29T12:25:46.252Z,202.59
2023-03-29T12:26:46.292Z,201.83
2023-03-29T12:27:46.367Z,200.35
2023-03-29T12:28:46.425Z,199.56